• Join FlightAware (Why Join?)
  • Login
  • US Flag 
03:41PM EDT


 

Airport Tracker/Info


-or-


 

Live Flight TrackerFlight Track Log ✈ UCA597 ✈ 18-Mar-2014 ✈ KIAD - KBGM

Flight Track Log - Related Links

Times and Time Zones

All times are in EDT time to prevent confusion due to time zone crossing. See the UCA597 flight status page for this flight to view local times or setup timezone preferences in your user account.

Time Position Orientation Groundspeed Altitude Reporting Facility
EDT Latitude Longitude Course Direction KTS MPH feet Rate Location/Type
06:24PM 38.9667 -77.5167 North 158 182 2,300  Level Potomac TRACON
06:25PM 39.0167 -77.5500 333° Northwest 183 211 3,800 1,440 Climbing Potomac TRACON
06:26PM 39.0667 -77.5500 360° North 193 222 5,200 1,440 Climbing Potomac TRACON
06:27PM 39.1167 -77.5667 346° North 191 220 6,700 1,380 Climbing Potomac TRACON
06:28PM 39.1667 -77.5667 360° North 207 238 8,000 1,380 Climbing Potomac TRACON
06:29PM 39.2690 -77.4500 North  Level FlightAware Approximate
06:29PM 39.2333 -77.5667 360° North 202 232 9,500  Level Potomac TRACON
06:31PM 39.3619 -77.5725 358° North 214 246 11,700 720 Climbing Washington Center
06:32PM 39.4311 -77.5422 19° North 227 261 12,100 420 Climbing Washington Center
06:33PM 39.5089 -77.5094 18° North 250 288 12,600 660 Climbing Washington Center
06:34PM 39.5758 -77.4814 18° North 257 296 13,500 900 Climbing Washington Center
06:35PM 39.6511 -77.4531 16° North 252 290 14,600 960 Climbing New York Center
06:36PM 39.7078 -77.4447 North 240 276 15,600 960 Climbing New York Center
06:37PM 39.7767 -77.4081 22° Northeast 240 276 16,600 660 Climbing New York Center
06:38PM 39.8344 -77.3811 20° North 240 276 17,000 180 Climbing New York Center
06:39PM 39.9097 -77.3422 22° Northeast 249 287 17,000  Level New York Center
06:40PM 39.9742 -77.3075 22° Northeast 269 310 17,000  Level New York Center
06:41PM 40.0533 -77.2689 20° North 279 321 17,000  Level New York Center
06:42PM 40.1178 -77.2342 22° Northeast 279 321 17,000  Level New York Center
06:43PM 40.1950 -77.1953 21° North 279 321 17,000  Level New York Center
06:44PM 40.2594 -77.1603 23° Northeast 279 321 17,000  Level New York Center
06:45PM 40.3386 -77.1214 21° North 279 321 17,000  Level New York Center
06:46PM 40.4031 -77.0892 21° North 279 321 17,000  Level New York Center
06:47PM 40.4803 -77.0469 23° Northeast 274 315 17,000  Level New York Center
06:48PM 40.5447 -77.0119 22° Northeast 274 315 17,000  Level New York Center
06:49PM 40.6239 -76.9725 21° North 274 315 17,000  Level New York Center
06:50PM 40.6861 -76.9372 23° Northeast 274 315 17,000  Level New York Center
06:51PM 40.7653 -76.8978 21° North 274 315 17,000  Level New York Center
06:52PM 40.8297 -76.8622 23° Northeast 281 323 17,000  Level New York Center
06:53PM 40.9089 -76.8228 21° North 281 323 17,000  Level New York Center
06:54PM 40.9775 -76.7819 24° Northeast 281 323 17,000  Level New York Center
06:55PM 41.0503 -76.7444 21° North 276 318 17,000  Level New York Center
06:56PM 41.1208 -76.7067 22° Northeast 276 318 17,000  Level New York Center
06:57PM 41.1917 -76.6658 23° Northeast 276 318 17,000  Level New York Center
06:58PM 41.2622 -76.6278 22° Northeast 276 318 17,000  Level New York Center
06:59PM 41.3331 -76.5900 22° Northeast 276 318 17,000  Level New York Center
07:00PM 41.3972 -76.5539 23° Northeast 276 318 17,000  Level New York Center
07:01PM 41.4742 -76.5136 21° North 276 318 17,000 -120 Level New York Center
07:02PM 41.5428 -76.4750 23° Northeast 276 318 16,800 -540 Descending New York Center
07:03PM 41.6175 -76.4369 21° North 276 318 16,000 -840 Descending New York Center
07:04PM 41.6836 -76.4008 22° Northeast 276 318 15,200 -840 Descending New York Center
07:05PM 41.7564 -76.3625 21° North 276 318 14,400 -900 Descending New York Center
07:06PM 41.8397 -76.3167 22° Northeast 281 323 13,500 -840 Descending New York Center
07:07PM 41.9125 -76.2753 23° Northeast 281 323 12,800 -780 Descending New York Center
07:08PM 41.9872 -76.2342 22° Northeast 281 323 12,000 -780 Descending New York Center
07:09PM 42.0578 -76.1953 22° Northeast 281 323 11,300 -1,200 Descending New York Center
07:10PM 42.1281 -76.1564 22° Northeast 281 323 9,600 -1,800 Descending New York Center
07:11PM 42.1922 -76.1222 22° Northeast 270 311 7,700 -1,980 Descending New York Center
07:12PM 42.2533 -76.1050 12° North 243 280 5,700 -1,920 Descending New York Center
07:13PM 42.2950 -76.0578 40° Northeast 220 253 3,900 -1,560 Descending New York Center
07:14PM 42.2531 -76.0181 145° Southeast 103 119 2,600 -900 Descending New York Center
07:15PM 42.2400 -75.9833 117° Southeast 98 113 2,100 7,140 Descending New York Center
07:16PM 42.2311 -75.9464 108° East 98 113 17,000 14,640 Climbing New York Center
07:18PM 42.2084 -75.9796 206° Southwest  Level Estimated
07:25PM 42.2084 -75.9796 North  Level Estimated
07:26PM 42.2084 -75.9796 131° Southeast  Level Estimated